Weather observations for the past three days for
Tacoma / McChord Air Force Base
Metric (Imperial)
Date Time (pdt) Wind (kph) Vis. (km) Weather Sky Cond. Temperature (ºC) Relative Humidity Wind Chill (°C) Heat Index (°C) Pressure Precipitation (cm)
Air Dwpt 6 hour altimeter (cm) sea level (mb) 1 hr 3 hr 6 hr
Max. Min.
07 13:55 E 6 16.09 Partly Cloudy SCT038 18.1 7.8 51% 76.43 1019.3
07 12:55 N 6 16.09 Overcast OVC034 16.6 7.5 55% 76.48 1020.0
07 11:55 N 6 16.09 Overcast OVC031 15.9 7.4 57% 76.5 1020.3
07 10:55 NW 11 16.09 Overcast OVC032 14.2 7.7 14.2 10.1 65% 76.53 1020.7
07 09:55 W 7 16.09 Overcast BKN022 OVC032 13 6.8 66% 76.53 1020.7
07 08:55 S 7 16.09 Mostly Cloudy FEW016 BKN031 12 7.3 73% 76.53 1020.7
07 07:55 SW 6 16.09 Overcast FEW019 OVC031 10.8 6.9 77% 76.56 1021.0
07 06:55 S 9 16.09 Overcast OVC014 10.3 6.8 79% 76.56 1021.0
07 05:55 S 6 16.09 Overcast OVC015 10.1 7 81% 76.53 1020.7
07 04:55 S 7 16.09 Overcast BKN016 OVC025 10.2 7.1 11.6 10.2 81% 76.56 1021.0
07 03:55 S 7 16.09 Overcast SCT017 BKN026 OVC033 10.6 6.9 78% 76.56 1021.0
07 02:55 S 11 16.09 Overcast OVC030 11 6.9 76% 76.56 1021.0
07 01:55 S 9 16.09 Overcast OVC032 11.4 7.1 75% 76.58 1021.3
07 00:55 SW 11 16.09 Overcast FEW020 OVC030 11.5 7.6 77% 76.58 1021.3
06 23:55 W 11 16.09 Overcast SCT025 OVC031 11.3 8.7 84% 76.58 1021.4
06 22:55 SW 11 9.66 Fog/Mist OVC004 11.4 9.8 15.8 11.4 90% 76.58 1021.4
06 21:55 SW 11 16.09 Overcast OVC006 12.3 9.5 83% 76.58 1021.4
06 20:55 W 15 16.09 Overcast OVC020 13.4 8.7 73% 76.56 1021.0
06 19:55 W 15 16.09 Overcast OVC022 13.6 8.8 73% 76.53 1020.7
06 18:55 W 19 16.09 Overcast OVC025 14.6 8.8 68% 76.53 1020.7
06 17:55 W 13 16.09 Overcast OVC027 15.3 9.6 69% 76.53 1020.7
06 16:55 W 15 16.09 Overcast OVC027 15.7 8.9 16.8 13.7 64% 76.53 1020.7
06 15:55 W 22 16.09 Overcast BKN028 OVC035 16.5 8.9 61% 76.5 1020.3
06 14:55 W 19 16.09 Overcast BKN027 OVC032 15.8 8.8 63% 76.56 1021.0
06 13:55 W 19 16.09 Overcast OVC026 16.4 8.6 60% 76.56 1021.0
06 12:55 SW 24 G 31 16.09 Overcast OVC020 15 8.9 67% 76.53 1020.7
06 11:55 W 11 16.09 Overcast OVC015 14.3 9.5 73% 76.53 1020.7
06 10:55 SW 11 16.09 Overcast OVC015 13.6 9.6 13.7 11.5 77% 76.5 1020.3
06 09:55 W 19 16.09 Overcast OVC011 12.8 9.4 80% 76.5 1020.3
06 08:55 SW 11 16.09 Overcast OVC008 12.2 9.4 83% 76.48 1020.0
06 07:55 W 9 16.09 Overcast OVC007 11.9 9.6 86% 76.48 1020.0
06 06:55 SW 13 16.09 Overcast OVC007 11.8 9.7 87% 76.45 1019.6
06 05:55 W 11 16.09 Overcast OVC008 11.7 9.6 87% 76.43 1019.3
06 04:55 SW 11 16.09 Overcast SCT011 OVC021 12.1 9.5 13.3 11.7 84% 76.4 1018.9
06 03:55 SW 11 16.09 Overcast OVC007 12.5 9.9 84% 76.38 1018.6
06 02:55 SW 7 16.09 Overcast OVC014 12.4 9.9 85% 76.33 1017.9
06 01:55 S 7 16.09 Overcast OVC011 11.9 10 88% 76.33 1017.9
06 00:55 W 7 16.09 Overcast OVC011 12.5 9.7 83% 76.3 1017.6
05 23:55 W 11 16.09 Fair CLR 12.4 9.6 83% 76.28 1017.3
05 22:55 W 11 16.09 Fair CLR 13.4 9.6 19 13.4 78% 76.23 1016.6
05 21:55 W 11 16.09 Fair CLR 15 10.4 74% 76.2 1016.2
05 20:55 W 9 16.09 Fair CLR 16.5 11.2 71% 76.15 1015.6
05 19:55 W 11 16.09 Fair CLR 17.6 11.2 66% 76.12 1015.2
05 18:55 W 11 16.09 Fair CLR 18.1 11.2 64% 76.12 1015.2
05 17:55 W 9 16.09 Fair CLR 18.6 11.6 64% 76.12 1015.2
05 16:55 NW 7 16.09 Fair CLR 18.7 11.3 19.1 14.5 62% 76.15 1015.5
05 14:55 W 11 16.09 Overcast OVC025 17.5 10.6 64% 76.2 1016.2
05 13:55 W 7 16.09 Overcast OVC023 16.7 10.3 66% 76.23 1016.6
05 12:55 W 9 16.09 Overcast OVC021 16.3 10.2 67% 76.23 1016.6
05 11:55 W 9 16.09 Overcast OVC019 15.1 10.1 72% 76.23 1016.6
05 10:55 SW 13 16.09 Overcast OVC018 14.4 9.8 14.6 13.1 74% 76.23 1016.6
05 09:55 W 7 16.09 Overcast OVC016 14 10 77% 76.2 1016.2
05 08:55 SW 7 16.09 Overcast OVC015 13.6 10 79% 76.17 1015.9
05 07:55 SW 9 16.09 Overcast OVC014 13.5 9.9 79% 76.17 1015.9
05 06:55 SW 11 16.09 Overcast OVC014 13.3 9.7 79% 76.12 1015.2
05 05:55 SW 9 16.09 Overcast OVC013 13.2 10 81% 76.07 1014.5
05 04:55 SW 11 16.09 Overcast OVC013 13.1 10.3 13.2 10.7 83% 76.05 1014.1
05 03:55 S 6 16.09 Overcast OVC013 12.5 10.4 87% 76.02 1013.8
05 02:55 S 6 16.09 Overcast OVC012 12.6 10.1 85% 76.02 1013.8
05 01:55 S 7 16.09 Overcast OVC012 12 10.2 89% 76 1013.4
05 00:55 Calm 16.09 Partly Cloudy SCT014 10.7 9.1 90% 75.97 1013.1
04 23:55 Calm 16.09 Fair CLR 12.6 10.1 85% 75.95 1012.8
04 22:55 NW 7 16.09 Fair CLR 13.2 10.2 25.2 13.2 82% 75.87 1011.8
04 21:55 W 13 16.09 Fair CLR 14.2 10.4 78% 75.87 1011.8
04 20:55 NW 9 16.09 Fair CLR 15.6 10.4 71% 75.82 1011.1
04 19:55 W 19 16.09 Fair CLR 18.5 10.6 60% 75.77 1010.4
04 18:55 NW 13 16.09 Fair CLR 21.5 11.5 53% 75.72 1009.8
04 17:55 W 15 16.09 Fair CLR 23.9 11.2 45% 25 75.72 1009.8
04 16:55 NW 15 16.09 Fair CLR 25.1 12.3 25.6 20.9 45% 26 75.72 1009.7
04 15:55 NW 15 16.09 Fair CLR 25 12.6 46% 26 75.74 1010.1
04 14:55 NW 17 16.09 Fair CLR 25.2 13.1 47% 26 75.77 1010.4
Date Time (pdt) Wind (kph) Vis. (km) Weather Sky Cond. Air Dwpt Max. Min. Relative Humidity Wind Chill (°C) Heat Index (°C) altimeter (cm) sea level (mb) 1 hr 3 hr 6 hr
6 hour
Temperature (ºC) Pressure Precipitation (cm)